sensor_id;sensor_type;location;lat;lon;timestamp;P1;durP1;ratioP1;P2;durP2;ratioP2
826;SDS011;395;48.132;11.608;2022-11-14T00:00:06;13.10;;;11.17;;
826;SDS011;395;48.132;11.608;2022-11-14T00:02:35;13.32;;;11.48;;
826;SDS011;395;48.132;11.608;2022-11-14T00:05:01;20.27;;;12.25;;
826;SDS011;395;48.132;11.608;2022-11-14T00:07:30;15.50;;;10.50;;
826;SDS011;395;48.132;11.608;2022-11-14T00:09:57;11.48;;;10.20;;
826;SDS011;395;48.132;11.608;2022-11-14T00:12:22;11.50;;;10.23;;
826;SDS011;395;48.132;11.608;2022-11-14T00:14:48;12.87;;;10.23;;
826;SDS011;395;48.132;11.608;2022-11-14T00:17:15;15.57;;;11.02;;
826;SDS011;395;48.132;11.608;2022-11-14T00:19:42;21.65;;;10.02;;
826;SDS011;395;48.132;11.608;2022-11-14T00:22:07;35.60;;;11.90;;
826;SDS011;395;48.132;11.608;2022-11-14T00:24:33;9.93;;;8.73;;
826;SDS011;395;48.132;11.608;2022-11-14T00:26:59;15.63;;;9.57;;
826;SDS011;395;48.132;11.608;2022-11-14T00:29:25;21.13;;;10.57;;
826;SDS011;395;48.132;11.608;2022-11-14T00:31:50;24.23;;;10.30;;
826;SDS011;395;48.132;11.608;2022-11-14T00:34:16;23.27;;;11.30;;
826;SDS011;395;48.132;11.608;2022-11-14T00:36:42;18.97;;;11.03;;
826;SDS011;395;48.132;11.608;2022-11-14T00:39:10;19.23;;;10.73;;
826;SDS011;395;48.132;11.608;2022-11-14T00:41:38;23.35;;;11.27;;
826;SDS011;395;48.132;11.608;2022-11-14T00:44:04;14.25;;;10.60;;
826;SDS011;395;48.132;11.608;2022-11-14T00:46:30;14.00;;;10.73;;
826;SDS011;395;48.132;11.608;2022-11-14T00:48:55;13.30;;;10.47;;
826;SDS011;395;48.132;11.608;2022-11-14T00:51:21;15.93;;;10.23;;
826;SDS011;395;48.132;11.608;2022-11-14T00:53:47;13.67;;;10.53;;
826;SDS011;395;48.132;11.608;2022-11-14T00:56:12;11.60;;;10.00;;
826;SDS011;395;48.132;11.608;2022-11-14T00:58:38;11.80;;;10.30;;
826;SDS011;395;48.132;11.608;2022-11-14T01:01:04;12.00;;;10.13;;
826;SDS011;395;48.132;11.608;2022-11-14T01:03:29;11.00;;;9.67;;
826;SDS011;395;48.132;11.608;2022-11-14T01:05:55;12.57;;;10.00;;
826;SDS011;395;48.132;11.608;2022-11-14T01:08:21;10.97;;;8.73;;
826;SDS011;395;48.132;11.608;2022-11-14T01:10:47;10.83;;;9.30;;
826;SDS011;395;48.132;11.608;2022-11-14T01:13:15;10.85;;;8.15;;
826;SDS011;395;48.132;11.608;2022-11-14T01:15:43;12.52;;;8.63;;
826;SDS011;395;48.132;11.608;2022-11-14T01:18:12;9.75;;;8.73;;
826;SDS011;395;48.132;11.608;2022-11-14T01:20:40;9.70;;;8.23;;
826;SDS011;395;48.132;11.608;2022-11-14T01:23:08;10.80;;;9.27;;
826;SDS011;395;48.132;11.608;2022-11-14T01:25:38;10.75;;;8.80;;
826;SDS011;395;48.132;11.608;2022-11-14T01:28:05;10.80;;;9.07;;
826;SDS011;395;48.132;11.608;2022-11-14T01:30:39;11.95;;;9.00;;
826;SDS011;395;48.132;11.608;2022-11-14T01:33:05;11.70;;;8.55;;
826;SDS011;395;48.132;11.608;2022-11-14T01:35:31;9.37;;;8.40;;
826;SDS011;395;48.132;11.608;2022-11-14T01:37:57;12.95;;;8.20;;
826;SDS011;395;48.132;11.608;2022-11-14T01:40:23;10.70;;;8.77;;
826;SDS011;395;48.132;11.608;2022-11-14T01:48:31;8.05;;;7.32;;
826;SDS011;395;48.132;11.608;2022-11-14T01:53:48;11.30;;;7.43;;
826;SDS011;395;48.132;11.608;2022-11-14T01:56:18;15.60;;;8.18;;
826;SDS011;395;48.132;11.608;2022-11-14T01:59:07;20.48;;;9.02;;
826;SDS011;395;48.132;11.608;2022-11-14T02:01:46;9.23;;;7.95;;
826;SDS011;395;48.132;11.608;2022-11-14T02:04:26;12.57;;;8.98;;
826;SDS011;395;48.132;11.608;2022-11-14T02:06:56;10.60;;;8.63;;
826;SDS011;395;48.132;11.608;2022-11-14T02:09:26;10.07;;;8.50;;
826;SDS011;395;48.132;11.608;2022-11-14T02:11:55;18.60;;;9.43;;
826;SDS011;395;48.132;11.608;2022-11-14T02:14:22;11.18;;;9.00;;
826;SDS011;395;48.132;11.608;2022-11-14T02:16:48;12.27;;;9.50;;
826;SDS011;395;48.132;11.608;2022-11-14T02:19:14;13.63;;;9.97;;
826;SDS011;395;48.132;11.608;2022-11-14T02:21:41;12.73;;;9.23;;
826;SDS011;395;48.132;11.608;2022-11-14T02:24:09;13.53;;;8.77;;
826;SDS011;395;48.132;11.608;2022-11-14T02:26:37;13.05;;;10.30;;
826;SDS011;395;48.132;11.608;2022-11-14T02:29:03;11.23;;;9.55;;
826;SDS011;395;48.132;11.608;2022-11-14T02:31:32;11.02;;;9.13;;
826;SDS011;395;48.132;11.608;2022-11-14T02:33:58;9.70;;;8.70;;
826;SDS011;395;48.132;11.608;2022-11-14T02:36:24;9.10;;;8.18;;
826;SDS011;395;48.132;11.608;2022-11-14T02:38:50;10.53;;;8.40;;
826;SDS011;395;48.132;11.608;2022-11-14T02:41:16;9.80;;;8.80;;
826;SDS011;395;48.132;11.608;2022-11-14T02:43:42;10.30;;;8.63;;
826;SDS011;395;48.132;11.608;2022-11-14T02:46:08;9.27;;;7.90;;
826;SDS011;395;48.132;11.608;2022-11-14T02:48:34;8.32;;;7.43;;
826;SDS011;395;48.132;11.608;2022-11-14T02:50:59;9.43;;;7.80;;
826;SDS011;395;48.132;11.608;2022-11-14T02:53:25;9.67;;;8.27;;
826;SDS011;395;48.132;11.608;2022-11-14T02:55:51;8.03;;;7.20;;
826;SDS011;395;48.132;11.608;2022-11-14T02:58:16;8.60;;;7.73;;
826;SDS011;395;48.132;11.608;2022-11-14T03:00:42;9.43;;;8.53;;
826;SDS011;395;48.132;11.608;2022-11-14T03:03:08;8.97;;;7.40;;
826;SDS011;395;48.132;11.608;2022-11-14T03:05:33;7.40;;;6.70;;
826;SDS011;395;48.132;11.608;2022-11-14T03:07:59;8.90;;;8.00;;
826;SDS011;395;48.132;11.608;2022-11-14T03:10:25;8.87;;;7.40;;
826;SDS011;395;48.132;11.608;2022-11-14T03:12:54;7.70;;;6.90;;
826;SDS011;395;48.132;11.608;2022-11-14T03:15:20;9.13;;;7.50;;
826;SDS011;395;48.132;11.608;2022-11-14T03:17:47;7.78;;;7.07;;
826;SDS011;395;48.132;11.608;2022-11-14T03:20:13;8.90;;;7.30;;
826;SDS011;395;48.132;11.608;2022-11-14T03:22:38;8.23;;;7.40;;
826;SDS011;395;48.132;11.608;2022-11-14T03:25:04;7.47;;;6.67;;
826;SDS011;395;48.132;11.608;2022-11-14T03:27:30;8.60;;;6.80;;
826;SDS011;395;48.132;11.608;2022-11-14T03:29:56;8.47;;;7.10;;
826;SDS011;395;48.132;11.608;2022-11-14T03:32:21;8.13;;;7.37;;
826;SDS011;395;48.132;11.608;2022-11-14T03:34:47;8.93;;;8.00;;
826;SDS011;395;48.132;11.608;2022-11-14T03:37:13;6.83;;;6.13;;
826;SDS011;395;48.132;11.608;2022-11-14T03:39:38;8.47;;;7.63;;
826;SDS011;395;48.132;11.608;2022-11-14T03:42:04;8.23;;;7.43;;
826;SDS011;395;48.132;11.608;2022-11-14T03:44:30;9.30;;;8.40;;
826;SDS011;395;48.132;11.608;2022-11-14T03:46:55;8.43;;;7.30;;
826;SDS011;395;48.132;11.608;2022-11-14T03:49:21;8.60;;;7.63;;
826;SDS011;395;48.132;11.608;2022-11-14T03:51:47;8.10;;;7.30;;
826;SDS011;395;48.132;11.608;2022-11-14T03:54:12;9.20;;;8.30;;
826;SDS011;395;48.132;11.608;2022-11-14T03:56:38;9.73;;;8.73;;
826;SDS011;395;48.132;11.608;2022-11-14T03:59:03;8.20;;;7.40;;
826;SDS011;395;48.132;11.608;2022-11-14T04:01:29;9.30;;;7.70;;
826;SDS011;395;48.132;11.608;2022-11-14T04:03:55;8.13;;;7.33;;
826;SDS011;395;48.132;11.608;2022-11-14T04:06:20;8.70;;;7.40;;
826;SDS011;395;48.132;11.608;2022-11-14T04:08:46;8.67;;;7.77;;
826;SDS011;395;48.132;11.608;2022-11-14T04:11:12;9.10;;;8.10;;
826;SDS011;395;48.132;11.608;2022-11-14T04:13:37;9.40;;;7.17;;
826;SDS011;395;48.132;11.608;2022-11-14T04:16:03;9.27;;;7.37;;
826;SDS011;395;48.132;11.608;2022-11-14T04:18:29;9.50;;;7.85;;
826;SDS011;395;48.132;11.608;2022-11-14T04:20:55;8.63;;;7.73;;
826;SDS011;395;48.132;11.608;2022-11-14T04:23:20;8.50;;;7.70;;
826;SDS011;395;48.132;11.608;2022-11-14T04:25:46;9.73;;;7.87;;
826;SDS011;395;48.132;11.608;2022-11-14T04:28:12;11.67;;;8.17;;
826;SDS011;395;48.132;11.608;2022-11-14T04:30:38;9.10;;;8.20;;
826;SDS011;395;48.132;11.608;2022-11-14T04:33:04;9.03;;;7.80;;
826;SDS011;395;48.132;11.608;2022-11-14T04:35:29;7.97;;;7.17;;
826;SDS011;395;48.132;11.608;2022-11-14T04:37:56;9.23;;;7.70;;
826;SDS011;395;48.132;11.608;2022-11-14T04:40:21;9.70;;;8.00;;
826;SDS011;395;48.132;11.608;2022-11-14T04:42:47;8.00;;;7.20;;
826;SDS011;395;48.132;11.608;2022-11-14T04:45:13;8.30;;;7.40;;
826;SDS011;395;48.132;11.608;2022-11-14T04:47:42;8.80;;;7.38;;
826;SDS011;395;48.132;11.608;2022-11-14T04:50:08;10.43;;;7.90;;
826;SDS011;395;48.132;11.608;2022-11-14T04:52:34;9.00;;;7.75;;
826;SDS011;395;48.132;11.608;2022-11-14T04:55:00;9.30;;;8.40;;
826;SDS011;395;48.132;11.608;2022-11-14T04:57:26;8.60;;;6.97;;
826;SDS011;395;48.132;11.608;2022-11-14T04:59:52;8.53;;;7.43;;
826;SDS011;395;48.132;11.608;2022-11-14T05:02:17;8.33;;;7.27;;
826;SDS011;395;48.132;11.608;2022-11-14T05:04:43;8.90;;;8.00;;
826;SDS011;395;48.132;11.608;2022-11-14T05:07:11;8.38;;;7.50;;
826;SDS011;395;48.132;11.608;2022-11-14T05:09:37;8.80;;;7.90;;
826;SDS011;395;48.132;11.608;2022-11-14T05:12:03;12.30;;;9.53;;
826;SDS011;395;48.132;11.608;2022-11-14T05:14:29;9.80;;;8.67;;
826;SDS011;395;48.132;11.608;2022-11-14T05:16:55;12.55;;;7.95;;
826;SDS011;395;48.132;11.608;2022-11-14T05:19:21;9.90;;;8.50;;
826;SDS011;395;48.132;11.608;2022-11-14T05:21:47;9.90;;;8.50;;
826;SDS011;395;48.132;11.608;2022-11-14T05:24:13;13.57;;;9.27;;
826;SDS011;395;48.132;11.608;2022-11-14T05:26:38;16.07;;;9.00;;
826;SDS011;395;48.132;11.608;2022-11-14T05:29:04;13.73;;;9.03;;
826;SDS011;395;48.132;11.608;2022-11-14T05:31:31;9.45;;;8.38;;
826;SDS011;395;48.132;11.608;2022-11-14T05:33:56;13.23;;;7.90;;
826;SDS011;395;48.132;11.608;2022-11-14T05:36:22;10.43;;;8.13;;
826;SDS011;395;48.132;11.608;2022-11-14T05:38:48;14.17;;;7.70;;
826;SDS011;395;48.132;11.608;2022-11-14T05:41:15;10.70;;;7.90;;
826;SDS011;395;48.132;11.608;2022-11-14T05:43:42;9.07;;;7.57;;
826;SDS011;395;48.132;11.608;2022-11-14T05:46:09;13.40;;;8.88;;
826;SDS011;395;48.132;11.608;2022-11-14T05:48:37;10.45;;;7.97;;
826;SDS011;395;48.132;11.608;2022-11-14T05:51:03;11.93;;;7.90;;
826;SDS011;395;48.132;11.608;2022-11-14T05:53:30;11.18;;;8.75;;
826;SDS011;395;48.132;11.608;2022-11-14T05:56:04;14.55;;;8.85;;
826;SDS011;395;48.132;11.608;2022-11-14T05:58:32;10.70;;;8.00;;
826;SDS011;395;48.132;11.608;2022-11-14T06:01:05;10.80;;;8.18;;
826;SDS011;395;48.132;11.608;2022-11-14T06:03:42;9.75;;;7.97;;
826;SDS011;395;48.132;11.608;2022-11-14T06:06:10;9.25;;;7.40;;
826;SDS011;395;48.132;11.608;2022-11-14T06:08:38;8.52;;;7.68;;
826;SDS011;395;48.132;11.608;2022-11-14T06:11:05;9.43;;;7.47;;
826;SDS011;395;48.132;11.608;2022-11-14T06:13:32;9.48;;;8.02;;
826;SDS011;395;48.132;11.608;2022-11-14T06:16:03;8.40;;;7.38;;
826;SDS011;395;48.132;11.608;2022-11-14T06:18:30;7.45;;;6.75;;
826;SDS011;395;48.132;11.608;2022-11-14T06:21:07;9.93;;;6.40;;
826;SDS011;395;48.132;11.608;2022-11-14T06:23:35;9.88;;;5.30;;
826;SDS011;395;48.132;11.608;2022-11-14T06:26:02;7.77;;;5.93;;
826;SDS011;395;48.132;11.608;2022-11-14T06:28:30;6.70;;;5.22;;
826;SDS011;395;48.132;11.608;2022-11-14T06:31:00;7.45;;;6.03;;
826;SDS011;395;48.132;11.608;2022-11-14T06:33:27;8.55;;;5.55;;
826;SDS011;395;48.132;11.608;2022-11-14T06:35:57;6.43;;;5.40;;
826;SDS011;395;48.132;11.608;2022-11-14T06:38:24;7.30;;;6.32;;
826;SDS011;395;48.132;11.608;2022-11-14T06:40:50;6.07;;;5.47;;
826;SDS011;395;48.132;11.608;2022-11-14T06:43:15;8.53;;;5.80;;
826;SDS011;395;48.132;11.608;2022-11-14T06:45:41;7.60;;;5.97;;
826;SDS011;395;48.132;11.608;2022-11-14T06:48:06;7.20;;;6.43;;
826;SDS011;395;48.132;11.608;2022-11-14T06:50:32;6.97;;;6.20;;
826;SDS011;395;48.132;11.608;2022-11-14T06:52:58;6.20;;;5.63;;
826;SDS011;395;48.132;11.608;2022-11-14T06:55:24;7.40;;;6.10;;
826;SDS011;395;48.132;11.608;2022-11-14T06:57:53;6.93;;;6.10;;
826;SDS011;395;48.132;11.608;2022-11-14T07:00:20;8.88;;;6.00;;
826;SDS011;395;48.132;11.608;2022-11-14T07:02:46;9.70;;;6.07;;
826;SDS011;395;48.132;11.608;2022-11-14T07:05:13;7.30;;;6.35;;
826;SDS011;395;48.132;11.608;2022-11-14T07:07:39;8.02;;;6.10;;
826;SDS011;395;48.132;11.608;2022-11-14T07:10:05;7.90;;;6.20;;
826;SDS011;395;48.132;11.608;2022-11-14T07:12:31;7.43;;;5.82;;
826;SDS011;395;48.132;11.608;2022-11-14T07:14:57;11.17;;;6.17;;
826;SDS011;395;48.132;11.608;2022-11-14T07:17:22;7.00;;;6.03;;
826;SDS011;395;48.132;11.608;2022-11-14T07:19:48;7.53;;;6.40;;
826;SDS011;395;48.132;11.608;2022-11-14T07:22:14;8.07;;;5.87;;
826;SDS011;395;48.132;11.608;2022-11-14T07:24:40;9.13;;;6.40;;
826;SDS011;395;48.132;11.608;2022-11-14T07:27:05;8.00;;;6.10;;
826;SDS011;395;48.132;11.608;2022-11-14T07:29:34;10.00;;;6.85;;
826;SDS011;395;48.132;11.608;2022-11-14T07:32:00;7.63;;;6.53;;
826;SDS011;395;48.132;11.608;2022-11-14T07:34:26;12.20;;;7.87;;
826;SDS011;395;48.132;11.608;2022-11-14T07:36:52;9.63;;;6.70;;
826;SDS011;395;48.132;11.608;2022-11-14T07:39:19;8.95;;;8.05;;
826;SDS011;395;48.132;11.608;2022-11-14T07:41:45;14.90;;;8.52;;
826;SDS011;395;48.132;11.608;2022-11-14T07:44:10;10.80;;;7.90;;
826;SDS011;395;48.132;11.608;2022-11-14T07:46:36;8.47;;;6.70;;
826;SDS011;395;48.132;11.608;2022-11-14T07:49:02;10.47;;;7.97;;
826;SDS011;395;48.132;11.608;2022-11-14T07:51:27;11.17;;;7.73;;
826;SDS011;395;48.132;11.608;2022-11-14T07:53:53;10.20;;;7.97;;
826;SDS011;395;48.132;11.608;2022-11-14T07:56:19;8.90;;;7.10;;
826;SDS011;395;48.132;11.608;2022-11-14T07:58:46;9.77;;;7.25;;
826;SDS011;395;48.132;11.608;2022-11-14T08:01:12;8.35;;;7.45;;
826;SDS011;395;48.132;11.608;2022-11-14T08:03:38;9.18;;;7.03;;
826;SDS011;395;48.132;11.608;2022-11-14T08:06:09;9.82;;;7.20;;
826;SDS011;395;48.132;11.608;2022-11-14T08:08:36;9.68;;;7.30;;
826;SDS011;395;48.132;11.608;2022-11-14T08:11:02;9.02;;;7.70;;
826;SDS011;395;48.132;11.608;2022-11-14T08:13:28;8.65;;;7.70;;
826;SDS011;395;48.132;11.608;2022-11-14T08:15:55;8.60;;;6.80;;
826;SDS011;395;48.132;11.608;2022-11-14T08:18:21;10.83;;;7.13;;
826;SDS011;395;48.132;11.608;2022-11-14T08:20:47;8.43;;;7.53;;
826;SDS011;395;48.132;11.608;2022-11-14T08:23:13;7.93;;;7.10;;
826;SDS011;395;48.132;11.608;2022-11-14T08:25:39;9.48;;;7.60;;
826;SDS011;395;48.132;11.608;2022-11-14T08:28:05;11.30;;;8.03;;
826;SDS011;395;48.132;11.608;2022-11-14T08:30:31;8.37;;;7.20;;
826;SDS011;395;48.132;11.608;2022-11-14T08:32:59;8.30;;;7.50;;
826;SDS011;395;48.132;11.608;2022-11-14T08:35:26;8.70;;;7.80;;
826;SDS011;395;48.132;11.608;2022-11-14T08:37:52;8.87;;;7.43;;
826;SDS011;395;48.132;11.608;2022-11-14T08:40:18;9.27;;;7.10;;
826;SDS011;395;48.132;11.608;2022-11-14T08:42:43;8.60;;;7.70;;
826;SDS011;395;48.132;11.608;2022-11-14T08:45:09;8.47;;;7.67;;
826;SDS011;395;48.132;11.608;2022-11-14T08:47:35;7.70;;;7.00;;
826;SDS011;395;48.132;11.608;2022-11-14T08:50:00;10.63;;;8.07;;
826;SDS011;395;48.132;11.608;2022-11-14T08:52:26;10.13;;;7.20;;
826;SDS011;395;48.132;11.608;2022-11-14T08:54:52;10.40;;;7.73;;
826;SDS011;395;48.132;11.608;2022-11-14T08:57:17;8.97;;;7.33;;
826;SDS011;395;48.132;11.608;2022-11-14T08:59:43;7.53;;;6.83;;
826;SDS011;395;48.132;11.608;2022-11-14T09:02:09;7.50;;;6.77;;
826;SDS011;395;48.132;11.608;2022-11-14T09:04:36;9.23;;;7.15;;
826;SDS011;395;48.132;11.608;2022-11-14T09:07:02;7.80;;;7.00;;
826;SDS011;395;48.132;11.608;2022-11-14T09:09:27;7.37;;;6.67;;
826;SDS011;395;48.132;11.608;2022-11-14T09:11:53;7.77;;;6.30;;
826;SDS011;395;48.132;11.608;2022-11-14T09:14:19;7.03;;;6.33;;
826;SDS011;395;48.132;11.608;2022-11-14T09:16:46;7.70;;;6.93;;
826;SDS011;395;48.132;11.608;2022-11-14T09:19:12;9.23;;;7.72;;
826;SDS011;395;48.132;11.608;2022-11-14T09:21:37;7.37;;;6.67;;
826;SDS011;395;48.132;11.608;2022-11-14T09:24:03;7.00;;;6.40;;
826;SDS011;395;48.132;11.608;2022-11-14T09:26:29;6.83;;;6.23;;
826;SDS011;395;48.132;11.608;2022-11-14T09:28:55;8.60;;;7.10;;
826;SDS011;395;48.132;11.608;2022-11-14T09:31:20;6.90;;;6.30;;
826;SDS011;395;48.132;11.608;2022-11-14T09:33:46;11.53;;;7.30;;
826;SDS011;395;48.132;11.608;2022-11-14T09:36:12;7.80;;;7.00;;
826;SDS011;395;48.132;11.608;2022-11-14T09:38:40;8.20;;;6.20;;
826;SDS011;395;48.132;11.608;2022-11-14T09:43:47;8.73;;;7.47;;
826;SDS011;395;48.132;11.608;2022-11-14T09:46:48;8.88;;;6.65;;
826;SDS011;395;48.132;11.608;2022-11-14T09:51:51;7.20;;;6.50;;
826;SDS011;395;48.132;11.608;2022-11-14T09:54:22;8.13;;;7.32;;
826;SDS011;395;48.132;11.608;2022-11-14T09:56:49;8.85;;;8.02;;
826;SDS011;395;48.132;11.608;2022-11-14T09:59:15;9.23;;;7.90;;
826;SDS011;395;48.132;11.608;2022-11-14T10:01:44;10.33;;;7.97;;
826;SDS011;395;48.132;11.608;2022-11-14T10:15:30;8.93;;;7.50;;
826;SDS011;395;48.132;11.608;2022-11-14T10:23:55;8.83;;;7.80;;
826;SDS011;395;48.132;11.608;2022-11-14T10:26:36;9.00;;;8.10;;
826;SDS011;395;48.132;11.608;2022-11-14T10:40:01;9.70;;;7.47;;
826;SDS011;395;48.132;11.608;2022-11-14T10:42:45;7.50;;;6.67;;
826;SDS011;395;48.132;11.608;2022-11-14T10:48:12;8.90;;;7.87;;
826;SDS011;395;48.132;11.608;2022-11-14T10:51:14;7.70;;;6.90;;
826;SDS011;395;48.132;11.608;2022-11-14T10:54:04;8.50;;;6.60;;
826;SDS011;395;48.132;11.608;2022-11-14T10:59:13;9.53;;;8.27;;
826;SDS011;395;48.132;11.608;2022-11-14T11:06:48;9.87;;;8.80;;
826;SDS011;395;48.132;11.608;2022-11-14T11:09:19;11.07;;;9.07;;
826;SDS011;395;48.132;11.608;2022-11-14T11:12:49;13.53;;;10.30;;
826;SDS011;395;48.132;11.608;2022-11-14T11:15:30;10.70;;;9.50;;
826;SDS011;395;48.132;11.608;2022-11-14T11:18:04;11.50;;;9.57;;
826;SDS011;395;48.132;11.608;2022-11-14T11:21:00;11.80;;;10.17;;
826;SDS011;395;48.132;11.608;2022-11-14T11:23:28;11.93;;;10.60;;
826;SDS011;395;48.132;11.608;2022-11-14T11:26:07;12.47;;;11.07;;
826;SDS011;395;48.132;11.608;2022-11-14T11:28:44;14.47;;;11.17;;
826;SDS011;395;48.132;11.608;2022-11-14T11:34:18;11.87;;;10.30;;
826;SDS011;395;48.132;11.608;2022-11-14T11:37:32;12.17;;;10.87;;
826;SDS011;395;48.132;11.608;2022-11-14T11:39:42;14.80;;;11.67;;
826;SDS011;395;48.132;11.608;2022-11-14T11:42:16;11.30;;;9.80;;
826;SDS011;395;48.132;11.608;2022-11-14T11:44:46;12.00;;;10.70;;
826;SDS011;395;48.132;11.608;2022-11-14T11:47:15;13.47;;;11.17;;
826;SDS011;395;48.132;11.608;2022-11-14T11:49:49;13.10;;;11.40;;
826;SDS011;395;48.132;11.608;2022-11-14T11:54:47;12.53;;;10.87;;
826;SDS011;395;48.132;11.608;2022-11-14T11:57:23;14.17;;;12.67;;
826;SDS011;395;48.132;11.608;2022-11-14T12:00:17;14.23;;;12.00;;
826;SDS011;395;48.132;11.608;2022-11-14T12:02:45;14.43;;;12.97;;
826;SDS011;395;48.132;11.608;2022-11-14T12:06:02;13.30;;;11.77;;
826;SDS011;395;48.132;11.608;2022-11-14T12:08:08;13.37;;;11.73;;
826;SDS011;395;48.132;11.608;2022-11-14T12:10:44;12.97;;;11.57;;
826;SDS011;395;48.132;11.608;2022-11-14T12:13:19;12.50;;;11.20;;
826;SDS011;395;48.132;11.608;2022-11-14T12:27:23;9.33;;;8.30;;
826;SDS011;395;48.132;11.608;2022-11-14T12:30:26;11.83;;;8.87;;
826;SDS011;395;48.132;11.608;2022-11-14T12:35:32;8.83;;;7.93;;
826;SDS011;395;48.132;11.608;2022-11-14T12:38:01;9.07;;;7.43;;
826;SDS011;395;48.132;11.608;2022-11-14T12:42:58;9.67;;;8.10;;
826;SDS011;395;48.132;11.608;2022-11-14T12:48:43;9.10;;;8.20;;
826;SDS011;395;48.132;11.608;2022-11-14T12:50:50;8.13;;;7.33;;
826;SDS011;395;48.132;11.608;2022-11-14T13:04:38;8.60;;;6.87;;
826;SDS011;395;48.132;11.608;2022-11-14T13:12:37;9.80;;;8.87;;
826;SDS011;395;48.132;11.608;2022-11-14T13:18:25;9.33;;;8.40;;
826;SDS011;395;48.132;11.608;2022-11-14T13:21:17;8.87;;;7.93;;
826;SDS011;395;48.132;11.608;2022-11-14T13:24:02;7.30;;;6.57;;
826;SDS011;395;48.132;11.608;2022-11-14T13:28:54;9.00;;;7.37;;
826;SDS011;395;48.132;11.608;2022-11-14T13:31:41;7.30;;;6.50;;
826;SDS011;395;48.132;11.608;2022-11-14T13:36:56;8.00;;;6.87;;
826;SDS011;395;48.132;11.608;2022-11-14T13:51:00;7.57;;;6.87;;
826;SDS011;395;48.132;11.608;2022-11-14T13:53:29;6.90;;;6.20;;
826;SDS011;395;48.132;11.608;2022-11-14T14:04:01;9.63;;;8.47;;
826;SDS011;395;48.132;11.608;2022-11-14T14:06:35;7.67;;;6.97;;
826;SDS011;395;48.132;11.608;2022-11-14T14:09:16;9.10;;;7.93;;
826;SDS011;395;48.132;11.608;2022-11-14T14:17:06;11.23;;;7.83;;
826;SDS011;395;48.132;11.608;2022-11-14T14:20:04;10.03;;;7.13;;
826;SDS011;395;48.132;11.608;2022-11-14T14:25:31;6.87;;;6.17;;
826;SDS011;395;48.132;11.608;2022-11-14T14:33:50;7.10;;;6.40;;
826;SDS011;395;48.132;11.608;2022-11-14T14:39:05;11.77;;;8.07;;
826;SDS011;395;48.132;11.608;2022-11-14T14:41:44;13.60;;;8.23;;
826;SDS011;395;48.132;11.608;2022-11-14T14:44:24;8.70;;;7.60;;
826;SDS011;395;48.132;11.608;2022-11-14T14:46:56;9.17;;;8.03;;
826;SDS011;395;48.132;11.608;2022-11-14T14:49:26;9.17;;;7.87;;
826;SDS011;395;48.132;11.608;2022-11-14T14:51:56;11.13;;;8.53;;
826;SDS011;395;48.132;11.608;2022-11-14T14:54:22;9.90;;;7.90;;
826;SDS011;395;48.132;11.608;2022-11-14T14:56:57;8.90;;;7.93;;
826;SDS011;395;48.132;11.608;2022-11-14T14:59:25;9.63;;;8.23;;
826;SDS011;395;48.132;11.608;2022-11-14T15:01:52;11.30;;;8.13;;
826;SDS011;395;48.132;11.608;2022-11-14T15:04:20;10.07;;;7.40;;
826;SDS011;395;48.132;11.608;2022-11-14T15:06:48;10.10;;;8.20;;
826;SDS011;395;48.132;11.608;2022-11-14T15:09:19;8.83;;;7.93;;
826;SDS011;395;48.132;11.608;2022-11-14T15:11:48;9.40;;;8.30;;
826;SDS011;395;48.132;11.608;2022-11-14T15:14:22;9.40;;;8.37;;
826;SDS011;395;48.132;11.608;2022-11-14T15:16:52;9.83;;;7.87;;
826;SDS011;395;48.132;11.608;2022-11-14T15:19:23;9.80;;;7.80;;
826;SDS011;395;48.132;11.608;2022-11-14T15:24:29;11.00;;;8.00;;
826;SDS011;395;48.132;11.608;2022-11-14T15:26:55;8.93;;;7.87;;
826;SDS011;395;48.132;11.608;2022-11-14T15:29:22;9.20;;;7.60;;
826;SDS011;395;48.132;11.608;2022-11-14T15:31:54;9.80;;;7.97;;
826;SDS011;395;48.132;11.608;2022-11-14T15:34:26;9.63;;;8.03;;
826;SDS011;395;48.132;11.608;2022-11-14T15:39:37;9.63;;;8.30;;
826;SDS011;395;48.132;11.608;2022-11-14T15:44:54;13.40;;;8.83;;
826;SDS011;395;48.132;11.608;2022-11-14T15:47:24;9.47;;;8.37;;
826;SDS011;395;48.132;11.608;2022-11-14T15:52:31;9.10;;;8.17;;
826;SDS011;395;48.132;11.608;2022-11-14T15:55:11;11.80;;;9.13;;
826;SDS011;395;48.132;11.608;2022-11-14T15:57:42;10.07;;;9.03;;
826;SDS011;395;48.132;11.608;2022-11-14T16:00:12;12.33;;;9.33;;
826;SDS011;395;48.132;11.608;2022-11-14T16:02:40;12.67;;;9.47;;
826;SDS011;395;48.132;11.608;2022-11-14T16:05:11;11.37;;;9.00;;
826;SDS011;395;48.132;11.608;2022-11-14T16:07:39;15.07;;;10.30;;
826;SDS011;395;48.132;11.608;2022-11-14T16:10:12;14.23;;;9.07;;
826;SDS011;395;48.132;11.608;2022-11-14T16:12:56;16.17;;;10.40;;
826;SDS011;395;48.132;11.608;2022-11-14T16:15:21;24.83;;;12.00;;
826;SDS011;395;48.132;11.608;2022-11-14T16:17:48;25.53;;;11.97;;
826;SDS011;395;48.132;11.608;2022-11-14T16:20:15;23.40;;;11.53;;
826;SDS011;395;48.132;11.608;2022-11-14T16:22:46;18.53;;;10.40;;
826;SDS011;395;48.132;11.608;2022-11-14T16:25:46;28.63;;;11.40;;
826;SDS011;395;48.132;11.608;2022-11-14T16:28:05;18.73;;;10.20;;
826;SDS011;395;48.132;11.608;2022-11-14T16:30:30;16.70;;;10.30;;
826;SDS011;395;48.132;11.608;2022-11-14T16:32:56;15.30;;;9.90;;
826;SDS011;395;48.132;11.608;2022-11-14T16:35:23;57.60;;;11.37;;
826;SDS011;395;48.132;11.608;2022-11-14T16:37:53;12.27;;;9.00;;
826;SDS011;395;48.132;11.608;2022-11-14T16:40:20;11.80;;;8.93;;
826;SDS011;395;48.132;11.608;2022-11-14T16:42:48;11.13;;;8.67;;
826;SDS011;395;48.132;11.608;2022-11-14T16:45:14;10.90;;;8.73;;
826;SDS011;395;48.132;11.608;2022-11-14T16:47:42;15.20;;;9.47;;
826;SDS011;395;48.132;11.608;2022-11-14T16:50:07;12.07;;;10.17;;
826;SDS011;395;48.132;11.608;2022-11-14T16:52:34;11.33;;;8.00;;
826;SDS011;395;48.132;11.608;2022-11-14T16:55:01;12.70;;;9.30;;
826;SDS011;395;48.132;11.608;2022-11-14T16:57:26;12.50;;;9.10;;
826;SDS011;395;48.132;11.608;2022-11-14T16:59:52;12.33;;;9.70;;
826;SDS011;395;48.132;11.608;2022-11-14T17:02:18;11.47;;;9.37;;
826;SDS011;395;48.132;11.608;2022-11-14T17:04:44;10.90;;;9.07;;
826;SDS011;395;48.132;11.608;2022-11-14T17:07:10;12.03;;;8.97;;
826;SDS011;395;48.132;11.608;2022-11-14T17:09:36;9.23;;;8.23;;
826;SDS011;395;48.132;11.608;2022-11-14T17:12:02;8.93;;;8.03;;
826;SDS011;395;48.132;11.608;2022-11-14T17:14:29;10.33;;;9.23;;
826;SDS011;395;48.132;11.608;2022-11-14T17:16:55;12.13;;;10.20;;
826;SDS011;395;48.132;11.608;2022-11-14T17:19:20;11.30;;;9.10;;
826;SDS011;395;48.132;11.608;2022-11-14T17:21:46;8.70;;;7.80;;
826;SDS011;395;48.132;11.608;2022-11-14T17:24:12;10.10;;;8.80;;
826;SDS011;395;48.132;11.608;2022-11-14T17:26:37;12.47;;;8.67;;
826;SDS011;395;48.132;11.608;2022-11-14T17:29:04;10.10;;;8.33;;
826;SDS011;395;48.132;11.608;2022-11-14T17:31:31;10.80;;;8.53;;
826;SDS011;395;48.132;11.608;2022-11-14T17:33:57;11.20;;;9.00;;
826;SDS011;395;48.132;11.608;2022-11-14T17:36:23;10.60;;;9.27;;
826;SDS011;395;48.132;11.608;2022-11-14T17:38:51;10.77;;;8.17;;
826;SDS011;395;48.132;11.608;2022-11-14T17:41:16;9.23;;;8.30;;
826;SDS011;395;48.132;11.608;2022-11-14T17:43:42;10.10;;;9.00;;
826;SDS011;395;48.132;11.608;2022-11-14T17:46:09;10.23;;;9.20;;
826;SDS011;395;48.132;11.608;2022-11-14T17:48:35;10.27;;;8.00;;
826;SDS011;395;48.132;11.608;2022-11-14T17:51:04;12.37;;;8.47;;
826;SDS011;395;48.132;11.608;2022-11-14T17:53:34;12.40;;;7.90;;
826;SDS011;395;48.132;11.608;2022-11-14T17:56:01;10.77;;;7.90;;
826;SDS011;395;48.132;11.608;2022-11-14T17:58:28;13.27;;;8.90;;
826;SDS011;395;48.132;11.608;2022-11-14T18:00:55;9.43;;;8.43;;